Main page
METAR-TAF:

METAR-TAF

Airports :

Gran Canaria Airport

Gran Canaria, Spain

latitude: 27-56N, longitude: 015-23W, elevation: 23 m

Current weather observation

The report was made 36 minutes ago, at 22:00 UTC
Wind 16 kt from the North
Temperature 23°C
Humidity 78%
Pressure 1018 hPa
Visibility 10 km or more
Few clouds at a height of 1700 ft
Scattered clouds at a height of 2500 ft

METAR: GCLP 212200Z 01016KT 9999 FEW017 SCT025 23/19 Q1018 NOSIG

Time: 23:36 (22:36 UTC)

Forecast

The report was made 2 hours and 36 minutes ago, at 20:00 UTC
Forecast valid from 21 at 21 UTC to 22 at 21 UTC
Wind 17 kt from the North
Visibility 10 km or more
Few clouds at a height of 3000 ft

TAF: GCLP 212000Z 2121/2221 01017KT 9999 FEW030 TX28/2214Z TN22/2205Z

Weather observations and forecasts of more than 4000 airports (METAR and TAF reports).

The available stations are represented by yellow and red dots on the map.

Hover mouse over dot to see the name of the station.

Then click to see weather observations and forecasts.

To change the map : click on the green buttons with a black cross to zoom in, on the green button with a dash to zoom out, or on the green arrows for adjacent maps.


METAR-TAF: